createdAt,value
2022-11-29T00:02:24.528Z,61.73
2022-11-29T00:04:52.362Z,55.13
2022-11-29T00:07:20.265Z,51.77
2022-11-29T00:09:48.069Z,47.20
2022-11-29T00:12:16.046Z,47.90
2022-11-29T00:14:44.274Z,47.80
2022-11-29T00:17:12.401Z,42.30
2022-11-29T00:19:41.757Z,37.47
2022-11-29T00:22:09.951Z,43.70
2022-11-29T00:24:37.834Z,38.80
2022-11-29T00:27:05.714Z,40.20
2022-11-29T00:29:44.947Z,38.27
2022-11-29T00:32:13.091Z,40.53
2022-11-29T00:34:42.491Z,39.37
2022-11-29T00:37:10.594Z,37.63
2022-11-29T00:39:38.585Z,38.57
2022-11-29T00:42:06.571Z,36.93
2022-11-29T00:44:34.624Z,39.27
2022-11-29T00:47:02.414Z,38.93
2022-11-29T00:49:30.317Z,44.57
2022-11-29T00:51:59.832Z,40.20
2022-11-29T00:54:27.920Z,42.87
2022-11-29T00:56:55.747Z,35.93
2022-11-29T00:59:23.912Z,43.03
2022-11-29T01:01:51.796Z,40.07
2022-11-29T01:04:20.019Z,37.90
2022-11-29T01:06:47.956Z,47.97
2022-11-29T01:09:17.210Z,37.27
2022-11-29T01:11:45.200Z,41.63
2022-11-29T01:14:14.315Z,41.83
2022-11-29T01:16:42.467Z,32.97
2022-11-29T01:19:10.718Z,38.83
2022-11-29T01:21:38.782Z,35.57
2022-11-29T01:24:07.134Z,35.93
2022-11-29T01:26:36.374Z,42.07
2022-11-29T01:29:04.398Z,42.30
2022-11-29T01:31:35.913Z,39.70
2022-11-29T01:34:05.936Z,39.73
2022-11-29T01:36:34.510Z,40.10
2022-11-29T01:39:04.012Z,38.10
2022-11-29T01:41:34.658Z,37.20
2022-11-29T01:44:05.918Z,41.20
2022-11-29T01:46:36.080Z,42.63
2022-11-29T01:49:16.659Z,38.67
2022-11-29T01:51:49.749Z,38.43
2022-11-29T01:54:17.717Z,40.77
2022-11-29T01:56:48.968Z,39.20
2022-11-29T01:59:21.002Z,40.63
2022-11-29T02:01:49.060Z,45.67
2022-11-29T02:04:18.786Z,44.07
2022-11-29T02:06:47.137Z,39.37
2022-11-29T02:09:20.296Z,39.27
2022-11-29T02:12:10.463Z,37.13
2022-11-29T02:14:56.796Z,41.83
2022-11-29T02:17:33.859Z,43.57
2022-11-29T02:20:30.016Z,38.17
2022-11-29T02:23:05.119Z,41.00
2022-11-29T02:25:46.608Z,37.43
2022-11-29T02:28:43.062Z,43.10
2022-11-29T02:31:38.702Z,38.10
2022-11-29T02:34:25.625Z,37.83
2022-11-29T02:37:11.564Z,39.63
2022-11-29T02:40:01.732Z,33.77
2022-11-29T02:42:58.600Z,37.57
2022-11-29T02:45:46.365Z,42.20
2022-11-29T02:48:30.901Z,37.83
2022-11-29T02:51:07.954Z,39.43
2022-11-29T02:53:43.167Z,38.20
2022-11-29T02:56:18.169Z,39.27
2022-11-29T02:58:52.600Z,44.13
2022-11-29T03:01:28.438Z,38.63
2022-11-29T03:04:03.556Z,35.33
2022-11-29T03:06:40.563Z,37.80
2022-11-29T03:09:13.519Z,42.77
2022-11-29T03:11:49.564Z,45.37
2022-11-29T03:14:25.364Z,40.17
2022-11-29T03:17:08.586Z,36.07
2022-11-29T03:20:02.063Z,38.70
2022-11-29T03:22:44.075Z,39.87
2022-11-29T03:25:20.582Z,42.53
2022-11-29T03:27:53.979Z,42.37
2022-11-29T03:30:22.792Z,40.17
2022-11-29T03:33:02.272Z,41.53
2022-11-29T03:35:38.846Z,37.80
2022-11-29T03:38:21.654Z,41.97
2022-11-29T03:40:57.014Z,43.87
2022-11-29T03:43:31.803Z,39.13
2022-11-29T03:46:04.702Z,40.53
2022-11-29T03:48:37.679Z,44.53
2022-11-29T03:51:12.295Z,46.23
2022-11-29T03:53:49.864Z,40.80
2022-11-29T03:56:29.034Z,44.93
2022-11-29T03:59:11.477Z,44.63
2022-11-29T04:02:01.484Z,50.77
2022-11-29T04:05:03.082Z,38.43
2022-11-29T04:08:01.421Z,43.83
2022-11-29T04:10:58.307Z,46.43
2022-11-29T04:13:48.800Z,38.27
2022-11-29T04:16:41.189Z,41.83
2022-11-29T04:19:42.425Z,42.07
2022-11-29T04:22:29.202Z,41.50
2022-11-29T04:25:34.722Z,44.47
2022-11-29T04:28:28.909Z,41.30
2022-11-29T04:31:04.065Z,43.33
2022-11-29T04:34:03.316Z,45.77
2022-11-29T04:36:59.680Z,42.17
2022-11-29T04:40:09.266Z,48.13
2022-11-29T04:42:56.095Z,45.53
2022-11-29T04:46:03.575Z,45.63
2022-11-29T04:48:52.252Z,45.13
2022-11-29T04:51:30.675Z,44.00
2022-11-29T04:54:07.726Z,44.43
2022-11-29T04:56:43.980Z,44.17
2022-11-29T04:59:17.722Z,40.53
2022-11-29T05:01:59.736Z,48.50
2022-11-29T05:04:38.137Z,43.50
2022-11-29T05:07:13.682Z,46.87
2022-11-29T05:09:58.859Z,39.57
2022-11-29T05:12:34.293Z,43.50
2022-11-29T05:15:33.751Z,43.00
2022-11-29T05:18:15.011Z,42.57
2022-11-29T05:20:52.845Z,39.77
2022-11-29T05:23:34.658Z,46.17
2022-11-29T05:26:10.263Z,47.17
2022-11-29T05:28:51.333Z,38.93
2022-11-29T05:31:32.267Z,44.20
2022-11-29T05:34:19.636Z,39.43
2022-11-29T05:36:56.413Z,47.40
2022-11-29T05:39:37.588Z,46.57
2022-11-29T05:42:31.115Z,44.97
2022-11-29T05:45:05.445Z,41.33
2022-11-29T05:47:41.307Z,40.07
2022-11-29T05:50:17.252Z,40.93
2022-11-29T05:52:51.920Z,40.50
2022-11-29T05:55:30.505Z,47.20
2022-11-29T05:58:02.492Z,39.43
2022-11-29T06:00:39.507Z,43.93
2022-11-29T06:03:16.999Z,41.57
2022-11-29T06:05:53.936Z,43.20
2022-11-29T06:08:30.885Z,50.33
2022-11-29T06:11:05.866Z,45.20
2022-11-29T06:13:43.853Z,46.30
2022-11-29T06:16:51.040Z,45.27
2022-11-29T06:19:52.973Z,38.73
2022-11-29T06:22:48.963Z,41.37
2022-11-29T06:25:31.712Z,40.57
2022-11-29T06:28:14.997Z,46.70
2022-11-29T06:30:56.552Z,40.53
2022-11-29T06:33:28.845Z,42.80
2022-11-29T06:36:12.955Z,40.67
2022-11-29T06:38:43.065Z,47.97
2022-11-29T06:41:17.321Z,40.33
2022-11-29T06:43:46.155Z,43.20
2022-11-29T06:46:24.122Z,41.27
2022-11-29T06:49:01.930Z,44.90
2022-11-29T06:51:36.090Z,47.57
2022-11-29T06:54:20.622Z,35.80
2022-11-29T06:56:57.900Z,36.10
2022-11-29T06:59:41.531Z,45.90
2022-11-29T07:02:27.977Z,41.70
2022-11-29T07:05:09.192Z,41.83
2022-11-29T07:07:37.823Z,41.20
2022-11-29T07:10:13.486Z,46.27
2022-11-29T07:12:43.206Z,44.70
2022-11-29T07:15:16.331Z,43.20
2022-11-29T07:18:06.163Z,45.10
2022-11-29T07:20:40.668Z,42.70
2022-11-29T07:23:18.523Z,39.40
2022-11-29T07:25:59.957Z,41.80
2022-11-29T07:28:39.062Z,44.80
2022-11-29T07:31:13.223Z,35.17
2022-11-29T07:33:50.923Z,39.03
2022-11-29T07:36:27.327Z,37.87
2022-11-29T07:39:04.512Z,41.73
2022-11-29T07:41:42.144Z,40.07
2022-11-29T07:44:21.620Z,41.77
2022-11-29T07:46:49.401Z,43.00
2022-11-29T07:49:17.567Z,46.47
2022-11-29T07:51:45.623Z,41.13
2022-11-29T07:54:20.353Z,36.57
2022-11-29T07:56:49.453Z,38.60
2022-11-29T07:59:17.209Z,41.60
2022-11-29T08:01:45.057Z,37.33
2022-11-29T08:04:13.925Z,39.63
2022-11-29T08:06:41.694Z,40.03
2022-11-29T08:09:09.509Z,39.30
2022-11-29T08:11:37.464Z,38.00
2022-11-29T08:14:06.775Z,35.53
2022-11-29T08:16:34.653Z,35.87
2022-11-29T08:19:02.930Z,42.50
2022-11-29T08:21:30.617Z,38.80
2022-11-29T08:23:58.519Z,38.80
2022-11-29T08:26:31.435Z,37.27
2022-11-29T08:28:59.824Z,39.93
2022-11-29T08:31:28.909Z,45.37
2022-11-29T08:33:56.714Z,36.67
2022-11-29T08:36:24.419Z,43.70
2022-11-29T08:38:59.246Z,39.47
2022-11-29T08:41:31.372Z,39.53
2022-11-29T08:43:59.306Z,34.77
2022-11-29T08:46:48.575Z,43.43
2022-11-29T14:36:50.750Z,46.90
2022-11-29T14:39:35.375Z,47.43
2022-11-29T14:42:17.098Z,38.37
2022-11-29T14:44:47.351Z,42.10
2022-11-29T14:47:24.054Z,42.63
2022-11-29T14:49:54.131Z,37.13
2022-11-29T14:52:32.947Z,46.33
2022-11-29T14:55:04.526Z,37.30
2022-11-29T14:58:15.173Z,43.03
2022-11-29T15:01:09.891Z,40.40
2022-11-29T15:03:49.640Z,44.17
2022-11-29T15:06:28.467Z,45.10
2022-11-29T15:09:03.783Z,43.87
2022-11-29T15:11:41.287Z,43.00
2022-11-29T15:14:17.081Z,41.57
2022-11-29T15:17:05.773Z,38.90
2022-11-29T15:20:11.653Z,43.43
2022-11-29T15:22:49.162Z,40.40
2022-11-29T15:25:21.617Z,41.67
2022-11-29T15:27:54.532Z,45.10
2022-11-29T15:30:30.038Z,47.63
2022-11-29T15:32:58.981Z,41.63
2022-11-29T15:35:49.630Z,41.73
2022-11-29T15:38:19.413Z,45.83
2022-11-29T15:40:53.581Z,41.20
2022-11-29T15:43:26.138Z,45.23
2022-11-29T15:45:55.771Z,43.70
2022-11-29T15:48:25.643Z,42.00
2022-11-29T15:51:00.806Z,43.70
2022-11-29T15:53:34.427Z,43.63
2022-11-29T15:56:06.401Z,44.20
2022-11-29T15:58:35.203Z,45.87
2022-11-29T16:01:04.588Z,46.40
2022-11-29T16:03:36.631Z,42.43
2022-11-29T16:06:17.275Z,51.90
2022-11-29T16:08:45.504Z,44.77
2022-11-29T16:11:21.290Z,44.27
2022-11-29T16:14:22.953Z,43.13
2022-11-29T16:16:53.491Z,54.67
2022-11-29T16:19:27.590Z,48.87
2022-11-29T16:22:05.210Z,42.30
2022-11-29T16:24:34.923Z,48.53
2022-11-29T16:27:05.730Z,47.83
2022-11-29T16:29:39.174Z,44.50
2022-11-29T16:32:15.980Z,46.43
2022-11-29T16:34:45.718Z,48.30
2022-11-29T16:37:20.529Z,49.80
2022-11-29T16:39:51.636Z,47.90
2022-11-29T16:42:25.916Z,44.00
2022-11-29T16:45:24.533Z,52.83
2022-11-29T16:47:58.077Z,48.93
2022-11-29T16:50:27.191Z,43.53
2022-11-29T16:52:57.062Z,51.73
2022-11-29T16:55:25.636Z,50.53
2022-11-29T16:57:54.958Z,48.03
2022-11-29T17:00:26.614Z,48.60
2022-11-29T17:02:54.551Z,49.00
2022-11-29T17:05:22.406Z,51.77
2022-11-29T17:07:51.435Z,51.73
2022-11-29T17:10:22.017Z,49.87
2022-11-29T17:12:50.140Z,51.73
2022-11-29T17:15:19.991Z,49.30
2022-11-29T17:17:47.861Z,45.70
2022-11-29T17:20:16.049Z,51.60
2022-11-29T17:22:45.763Z,46.87
2022-11-29T17:25:13.582Z,46.30
2022-11-29T17:27:43.838Z,47.37
2022-11-29T17:30:12.646Z,46.63
2022-11-29T17:32:48.094Z,45.33
2022-11-29T17:35:16.479Z,46.33
2022-11-29T17:37:44.636Z,46.97
2022-11-29T17:40:15.296Z,42.13
2022-11-29T17:42:43.081Z,45.40
2022-11-29T17:45:12.187Z,45.40
2022-11-29T17:47:41.505Z,46.83
2022-11-29T17:50:09.835Z,47.20
2022-11-29T17:52:39.169Z,45.43
2022-11-29T17:55:08.361Z,47.30
2022-11-29T17:57:36.362Z,44.07
2022-11-29T18:00:06.326Z,43.87
2022-11-29T18:02:34.542Z,44.63
2022-11-29T18:05:03.812Z,54.10
2022-11-29T18:07:31.774Z,44.97
2022-11-29T18:09:59.673Z,43.50
2022-11-29T18:12:27.766Z,43.77
2022-11-29T18:17:51.030Z,45.40
2022-11-29T18:20:20.394Z,44.27
2022-11-29T18:22:48.266Z,48.20
2022-11-29T18:25:38.196Z,42.63
2022-11-29T18:28:04.012Z,45.40
2022-11-29T18:30:31.822Z,44.43
2022-11-29T18:32:59.827Z,40.30
2022-11-29T18:35:34.666Z,51.53
2022-11-29T18:40:49.074Z,46.13
2022-11-29T18:43:25.916Z,50.73
2022-11-29T18:45:54.787Z,48.80
2022-11-29T18:51:51.908Z,45.43
2022-11-29T18:54:21.322Z,52.93
2022-11-29T18:56:54.126Z,51.13
2022-11-29T18:59:23.008Z,45.50
2022-11-29T19:01:57.195Z,45.43
2022-11-29T19:04:43.842Z,51.37
2022-11-29T19:07:16.768Z,50.80
2022-11-29T19:09:45.377Z,49.57
2022-11-29T19:12:13.308Z,47.47
2022-11-29T19:14:46.515Z,39.57
2022-11-29T19:17:17.593Z,51.53
2022-11-29T19:19:45.744Z,46.10
2022-11-29T19:22:15.478Z,48.47
2022-11-29T19:24:43.654Z,51.07
2022-11-29T19:27:11.751Z,54.67
2022-11-29T19:29:40.008Z,49.03
2022-11-29T19:32:08.574Z,89.30
2022-11-29T19:34:36.551Z,46.90
2022-11-29T19:37:04.512Z,53.70
2022-11-29T19:39:33.969Z,50.03
2022-11-29T19:42:01.837Z,47.73
2022-11-29T19:44:30.214Z,50.77
2022-11-29T19:46:59.276Z,54.40
2022-11-29T19:49:27.044Z,48.53
2022-11-29T19:51:55.104Z,56.03
2022-11-29T19:54:22.850Z,50.40
2022-11-29T19:56:52.132Z,45.90
2022-11-29T19:59:19.973Z,47.80
2022-11-29T20:01:47.883Z,51.13
2022-11-29T20:04:16.874Z,50.30
2022-11-29T20:06:45.411Z,58.73
2022-11-29T20:09:14.633Z,51.90
2022-11-29T20:11:42.397Z,51.00
2022-11-29T20:14:14.794Z,55.77
2022-11-29T20:16:43.524Z,44.27
2022-11-29T20:19:13.043Z,53.30
2022-11-29T20:21:44.025Z,55.57
2022-11-29T20:24:12.940Z,51.00
2022-11-29T20:26:42.234Z,46.93
2022-11-29T20:29:13.116Z,49.43
2022-11-29T20:31:49.033Z,48.10
2022-11-29T20:34:18.368Z,52.17
2022-11-29T20:37:02.162Z,49.13
2022-11-29T20:39:39.102Z,55.13
2022-11-29T20:42:24.857Z,54.93
2022-11-29T20:44:56.364Z,50.60
2022-11-29T20:47:26.380Z,52.67
2022-11-29T20:49:54.907Z,52.90
2022-11-29T20:52:35.528Z,53.97
2022-11-29T20:55:03.556Z,50.13
2022-11-29T20:57:31.478Z,52.10
2022-11-29T21:00:00.668Z,53.13
2022-11-29T21:02:31.387Z,48.73
2022-11-29T21:04:59.380Z,52.63
2022-11-29T21:07:27.149Z,50.50
2022-11-29T21:12:45.782Z,53.67
2022-11-29T21:15:16.819Z,53.87
2022-11-29T21:17:45.910Z,52.70
2022-11-29T21:20:20.065Z,54.40
2022-11-29T21:22:55.740Z,55.23
2022-11-29T21:25:36.559Z,57.00
2022-11-29T21:28:15.014Z,53.27
2022-11-29T21:30:45.251Z,50.73
2022-11-29T21:33:14.939Z,58.13
2022-11-29T21:35:46.449Z,55.17
2022-11-29T21:41:47.258Z,53.10
2022-11-29T21:44:17.469Z,56.73
2022-11-29T21:46:46.701Z,53.03
2022-11-29T21:49:14.762Z,49.73
2022-11-29T21:51:42.785Z,53.17
2022-11-29T21:54:10.566Z,52.70
2022-11-29T21:56:38.505Z,59.47
2022-11-29T21:59:06.336Z,51.27
2022-11-29T22:01:34.695Z,57.57
2022-11-29T22:04:04.440Z,57.83
2022-11-29T22:06:32.273Z,51.23
2022-11-29T22:09:00.576Z,49.60
2022-11-29T22:11:35.485Z,49.97
2022-11-29T22:14:17.927Z,49.13
2022-11-29T22:16:48.489Z,55.27
2022-11-29T22:19:19.372Z,56.57
2022-11-29T22:21:48.979Z,63.77
2022-11-29T22:24:27.154Z,52.40
2022-11-29T22:26:55.918Z,51.67
2022-11-29T22:29:24.780Z,55.77
2022-11-29T22:31:54.369Z,53.47
2022-11-29T22:34:25.120Z,59.17
2022-11-29T22:36:53.016Z,58.23
2022-11-29T22:39:20.916Z,54.23
2022-11-29T22:41:53.944Z,55.07
2022-11-29T22:44:22.889Z,52.43
2022-11-29T22:46:51.188Z,60.43
2022-11-29T22:49:19.025Z,51.73
2022-11-29T22:51:48.341Z,57.20
2022-11-29T22:54:17.321Z,48.93
2022-11-29T22:56:46.429Z,54.97
2022-11-29T22:59:16.981Z,51.27
2022-11-29T23:01:45.090Z,50.47
2022-11-29T23:04:13.804Z,61.23
2022-11-29T23:06:43.980Z,54.20
2022-11-29T23:09:16.297Z,60.10
2022-11-29T23:11:45.186Z,56.73
2022-11-29T23:14:13.515Z,61.67
2022-11-29T23:16:41.400Z,55.13
2022-11-29T23:19:10.180Z,66.17
2022-11-29T23:21:43.015Z,53.73
2022-11-29T23:24:11.185Z,58.73
2022-11-29T23:26:48.251Z,56.13
2022-11-29T23:29:18.315Z,54.60
2022-11-29T23:31:46.754Z,55.33
2022-11-29T23:34:32.177Z,54.57
2022-11-29T23:36:59.949Z,56.37
2022-11-29T23:39:27.867Z,55.37
2022-11-29T23:41:57.230Z,58.63
2022-11-29T23:44:36.760Z,60.53
2022-11-29T23:47:05.728Z,63.63
2022-11-29T23:50:26.877Z,59.17
2022-11-29T23:52:58.036Z,57.97
2022-11-29T23:55:27.945Z,55.53
2022-11-29T23:57:57.670Z,58.73
